sensor_id;sensor_type;location;lat;lon;timestamp;temperature;humidity
28010;DHT22;15334;49.494;8.410;2022-11-18T00:00:04;9.80;99.90
28010;DHT22;15334;49.494;8.410;2022-11-18T00:02:37;9.80;99.90
28010;DHT22;15334;49.494;8.410;2022-11-18T00:05:05;9.80;99.90
28010;DHT22;15334;49.494;8.410;2022-11-18T00:07:33;9.80;99.90
28010;DHT22;15334;49.494;8.410;2022-11-18T00:10:01;9.80;99.90
28010;DHT22;15334;49.494;8.410;2022-11-18T00:12:29;9.80;99.90
28010;DHT22;15334;49.494;8.410;2022-11-18T00:15:15;9.80;99.90
28010;DHT22;15334;49.494;8.410;2022-11-18T00:17:44;9.80;99.90
28010;DHT22;15334;49.494;8.410;2022-11-18T00:20:15;9.80;99.90
28010;DHT22;15334;49.494;8.410;2022-11-18T00:22:45;9.80;99.90
28010;DHT22;15334;49.494;8.410;2022-11-18T00:25:13;9.80;99.90
28010;DHT22;15334;49.494;8.410;2022-11-18T00:27:41;9.70;99.90
28010;DHT22;15334;49.494;8.410;2022-11-18T00:30:10;9.70;99.90
28010;DHT22;15334;49.494;8.410;2022-11-18T00:32:38;9.70;99.90
28010;DHT22;15334;49.494;8.410;2022-11-18T00:35:08;9.70;99.90
28010;DHT22;15334;49.494;8.410;2022-11-18T00:37:36;9.70;99.90
28010;DHT22;15334;49.494;8.410;2022-11-18T00:40:05;9.70;99.90
28010;DHT22;15334;49.494;8.410;2022-11-18T00:42:33;9.70;99.90
28010;DHT22;15334;49.494;8.410;2022-11-18T00:45:22;9.70;99.90
28010;DHT22;15334;49.494;8.410;2022-11-18T00:47:50;9.70;99.90
28010;DHT22;15334;49.494;8.410;2022-11-18T00:50:20;9.60;99.90
28010;DHT22;15334;49.494;8.410;2022-11-18T00:52:48;9.60;99.90
28010;DHT22;15334;49.494;8.410;2022-11-18T00:55:16;9.60;99.90
28010;DHT22;15334;49.494;8.410;2022-11-18T00:57:44;9.60;99.90
28010;DHT22;15334;49.494;8.410;2022-11-18T01:00:22;9.60;99.90
28010;DHT22;15334;49.494;8.410;2022-11-18T01:02:51;9.60;99.90
28010;DHT22;15334;49.494;8.410;2022-11-18T01:05:20;9.60;99.90
28010;DHT22;15334;49.494;8.410;2022-11-18T01:07:48;9.50;99.90
28010;DHT22;15334;49.494;8.410;2022-11-18T01:10:28;9.50;99.90
28010;DHT22;15334;49.494;8.410;2022-11-18T01:12:57;9.50;99.90
28010;DHT22;15334;49.494;8.410;2022-11-18T01:15:43;9.50;99.90
28010;DHT22;15334;49.494;8.410;2022-11-18T01:18:19;9.60;99.90
28010;DHT22;15334;49.494;8.410;2022-11-18T01:20:49;9.70;99.90
28010;DHT22;15334;49.494;8.410;2022-11-18T01:23:18;9.60;99.90
28010;DHT22;15334;49.494;8.410;2022-11-18T01:25:48;9.60;99.90
28010;DHT22;15334;49.494;8.410;2022-11-18T01:28:17;9.70;99.90
28010;DHT22;15334;49.494;8.410;2022-11-18T01:30:49;9.70;99.90
28010;DHT22;15334;49.494;8.410;2022-11-18T01:33:18;9.70;99.90
28010;DHT22;15334;49.494;8.410;2022-11-18T01:35:46;9.70;99.90
28010;DHT22;15334;49.494;8.410;2022-11-18T01:38:16;9.70;99.90
28010;DHT22;15334;49.494;8.410;2022-11-18T01:40:44;9.70;99.90
28010;DHT22;15334;49.494;8.410;2022-11-18T01:43:18;9.70;99.90
28010;DHT22;15334;49.494;8.410;2022-11-18T01:45:47;9.70;99.90
28010;DHT22;15334;49.494;8.410;2022-11-18T01:48:17;9.70;99.90
28010;DHT22;15334;49.494;8.410;2022-11-18T01:50:51;9.70;99.90
28010;DHT22;15334;49.494;8.410;2022-11-18T01:53:25;9.70;99.90
28010;DHT22;15334;49.494;8.410;2022-11-18T01:55:55;9.70;99.90
28010;DHT22;15334;49.494;8.410;2022-11-18T01:58:27;9.80;99.90
28010;DHT22;15334;49.494;8.410;2022-11-18T02:00:57;9.80;99.90
28010;DHT22;15334;49.494;8.410;2022-11-18T02:03:26;9.80;99.90
28010;DHT22;15334;49.494;8.410;2022-11-18T02:05:56;9.80;99.90
28010;DHT22;15334;49.494;8.410;2022-11-18T02:08:27;9.70;99.90
28010;DHT22;15334;49.494;8.410;2022-11-18T02:10:58;9.70;99.90
28010;DHT22;15334;49.494;8.410;2022-11-18T02:13:27;9.70;99.90
28010;DHT22;15334;49.494;8.410;2022-11-18T02:16:02;9.70;99.90
28010;DHT22;15334;49.494;8.410;2022-11-18T02:18:40;9.70;99.90
28010;DHT22;15334;49.494;8.410;2022-11-18T02:21:23;9.70;99.90
28010;DHT22;15334;49.494;8.410;2022-11-18T02:24:19;9.70;99.90
28010;DHT22;15334;49.494;8.410;2022-11-18T02:30:09;9.70;99.90
28010;DHT22;15334;49.494;8.410;2022-11-18T02:32:42;9.70;99.90
28010;DHT22;15334;49.494;8.410;2022-11-18T02:35:17;9.70;99.90
28010;DHT22;15334;49.494;8.410;2022-11-18T02:37:48;9.70;99.90
28010;DHT22;15334;49.494;8.410;2022-11-18T02:40:21;9.70;99.90
28010;DHT22;15334;49.494;8.410;2022-11-18T02:42:53;9.80;99.90
28010;DHT22;15334;49.494;8.410;2022-11-18T02:45:25;9.80;99.90
28010;DHT22;15334;49.494;8.410;2022-11-18T02:47:55;9.80;99.90
28010;DHT22;15334;49.494;8.410;2022-11-18T02:50:28;9.80;99.90
28010;DHT22;15334;49.494;8.410;2022-11-18T02:52:59;9.80;99.90
28010;DHT22;15334;49.494;8.410;2022-11-18T02:55:30;9.80;99.90
28010;DHT22;15334;49.494;8.410;2022-11-18T02:58:01;9.80;99.90
28010;DHT22;15334;49.494;8.410;2022-11-18T03:00:32;9.90;99.90
28010;DHT22;15334;49.494;8.410;2022-11-18T03:03:12;9.90;99.90
28010;DHT22;15334;49.494;8.410;2022-11-18T03:05:52;9.80;99.90
28010;DHT22;15334;49.494;8.410;2022-11-18T03:08:25;9.90;99.90
28010;DHT22;15334;49.494;8.410;2022-11-18T03:11:02;9.90;99.90
28010;DHT22;15334;49.494;8.410;2022-11-18T03:13:33;9.90;99.90
28010;DHT22;15334;49.494;8.410;2022-11-18T03:16:08;9.90;99.90
28010;DHT22;15334;49.494;8.410;2022-11-18T03:18:43;9.90;99.90
28010;DHT22;15334;49.494;8.410;2022-11-18T03:21:16;10.00;99.90
28010;DHT22;15334;49.494;8.410;2022-11-18T03:23:50;10.00;99.90
28010;DHT22;15334;49.494;8.410;2022-11-18T03:26:25;10.00;99.90
28010;DHT22;15334;49.494;8.410;2022-11-18T03:29:00;10.00;99.90
28010;DHT22;15334;49.494;8.410;2022-11-18T03:31:35;10.00;99.90
28010;DHT22;15334;49.494;8.410;2022-11-18T03:34:07;10.10;99.90
28010;DHT22;15334;49.494;8.410;2022-11-18T03:36:40;10.10;99.90
28010;DHT22;15334;49.494;8.410;2022-11-18T03:39:16;10.00;99.90
28010;DHT22;15334;49.494;8.410;2022-11-18T03:41:52;10.10;99.90
28010;DHT22;15334;49.494;8.410;2022-11-18T03:44:25;10.10;99.90
28010;DHT22;15334;49.494;8.410;2022-11-18T03:46:59;10.10;99.90
28010;DHT22;15334;49.494;8.410;2022-11-18T03:49:29;10.10;99.90
28010;DHT22;15334;49.494;8.410;2022-11-18T03:52:05;10.10;99.90
28010;DHT22;15334;49.494;8.410;2022-11-18T03:54:36;10.10;99.90
28010;DHT22;15334;49.494;8.410;2022-11-18T03:57:09;10.10;99.90
28010;DHT22;15334;49.494;8.410;2022-11-18T03:59:42;10.20;99.90
28010;DHT22;15334;49.494;8.410;2022-11-18T04:02:15;10.20;99.90
28010;DHT22;15334;49.494;8.410;2022-11-18T04:04:45;10.20;99.90
28010;DHT22;15334;49.494;8.410;2022-11-18T04:07:19;10.20;99.90
28010;DHT22;15334;49.494;8.410;2022-11-18T04:09:54;10.20;99.90
28010;DHT22;15334;49.494;8.410;2022-11-18T04:12:24;10.30;99.90
28010;DHT22;15334;49.494;8.410;2022-11-18T04:14:54;10.30;99.90
28010;DHT22;15334;49.494;8.410;2022-11-18T04:17:26;10.30;99.90
28010;DHT22;15334;49.494;8.410;2022-11-18T04:19:55;10.30;99.90
28010;DHT22;15334;49.494;8.410;2022-11-18T04:22:23;10.30;99.90
28010;DHT22;15334;49.494;8.410;2022-11-18T04:24:51;10.20;99.90
28010;DHT22;15334;49.494;8.410;2022-11-18T04:27:19;10.20;99.90
28010;DHT22;15334;49.494;8.410;2022-11-18T04:29:47;10.20;99.90
28010;DHT22;15334;49.494;8.410;2022-11-18T04:32:15;10.20;99.90
28010;DHT22;15334;49.494;8.410;2022-11-18T04:34:45;10.20;99.90
28010;DHT22;15334;49.494;8.410;2022-11-18T04:37:13;10.20;99.90
28010;DHT22;15334;49.494;8.410;2022-11-18T04:39:41;10.20;99.90
28010;DHT22;15334;49.494;8.410;2022-11-18T04:42:13;10.20;99.90
28010;DHT22;15334;49.494;8.410;2022-11-18T04:44:42;10.20;99.90
28010;DHT22;15334;49.494;8.410;2022-11-18T04:47:13;10.10;99.90
28010;DHT22;15334;49.494;8.410;2022-11-18T04:49:41;10.10;99.90
28010;DHT22;15334;49.494;8.410;2022-11-18T04:52:11;10.00;99.90
28010;DHT22;15334;49.494;8.410;2022-11-18T04:54:39;9.90;99.90
28010;DHT22;15334;49.494;8.410;2022-11-18T04:57:32;9.90;99.90
28010;DHT22;15334;49.494;8.410;2022-11-18T05:00:16;9.90;99.90
28010;DHT22;15334;49.494;8.410;2022-11-18T05:02:50;9.80;99.90
28010;DHT22;15334;49.494;8.410;2022-11-18T05:05:19;9.80;99.90
28010;DHT22;15334;49.494;8.410;2022-11-18T05:08:06;9.70;99.90
28010;DHT22;15334;49.494;8.410;2022-11-18T05:14:00;9.60;99.90
28010;DHT22;15334;49.494;8.410;2022-11-18T05:17:13;9.60;99.90
28010;DHT22;15334;49.494;8.410;2022-11-18T05:19:46;9.60;99.90
28010;DHT22;15334;49.494;8.410;2022-11-18T05:22:33;9.60;99.90
28010;DHT22;15334;49.494;8.410;2022-11-18T05:25:49;9.60;99.90
28010;DHT22;15334;49.494;8.410;2022-11-18T05:28:30;9.50;99.90
28010;DHT22;15334;49.494;8.410;2022-11-18T05:31:10;9.50;99.90
28010;DHT22;15334;49.494;8.410;2022-11-18T05:33:54;9.60;99.90
28010;DHT22;15334;49.494;8.410;2022-11-18T05:36:32;9.60;99.90
28010;DHT22;15334;49.494;8.410;2022-11-18T05:39:03;9.60;99.90
28010;DHT22;15334;49.494;8.410;2022-11-18T05:41:38;9.50;99.90
28010;DHT22;15334;49.494;8.410;2022-11-18T05:44:24;9.50;99.90
28010;DHT22;15334;49.494;8.410;2022-11-18T05:46:53;9.50;99.90
28010;DHT22;15334;49.494;8.410;2022-11-18T05:49:22;9.40;99.90
28010;DHT22;15334;49.494;8.410;2022-11-18T05:51:51;9.40;99.90
28010;DHT22;15334;49.494;8.410;2022-11-18T05:54:20;9.40;99.90
28010;DHT22;15334;49.494;8.410;2022-11-18T05:56:54;9.30;99.90
28010;DHT22;15334;49.494;8.410;2022-11-18T05:59:24;9.30;99.90
28010;DHT22;15334;49.494;8.410;2022-11-18T06:01:56;9.20;99.90
28010;DHT22;15334;49.494;8.410;2022-11-18T06:04:35;9.10;99.90
28010;DHT22;15334;49.494;8.410;2022-11-18T06:07:06;9.10;99.90
28010;DHT22;15334;49.494;8.410;2022-11-18T06:09:42;9.10;99.90
28010;DHT22;15334;49.494;8.410;2022-11-18T06:12:15;9.10;99.90
28010;DHT22;15334;49.494;8.410;2022-11-18T06:14:47;9.10;99.90
28010;DHT22;15334;49.494;8.410;2022-11-18T06:17:20;9.10;99.90
28010;DHT22;15334;49.494;8.410;2022-11-18T06:19:49;9.00;99.90
28010;DHT22;15334;49.494;8.410;2022-11-18T06:22:18;9.00;99.90
28010;DHT22;15334;49.494;8.410;2022-11-18T06:24:47;8.90;99.90
28010;DHT22;15334;49.494;8.410;2022-11-18T06:27:16;8.90;99.90
28010;DHT22;15334;49.494;8.410;2022-11-18T06:29:48;8.90;99.90
28010;DHT22;15334;49.494;8.410;2022-11-18T06:32:16;8.90;99.90
28010;DHT22;15334;49.494;8.410;2022-11-18T06:34:44;8.90;99.90
28010;DHT22;15334;49.494;8.410;2022-11-18T06:37:13;8.90;99.90
28010;DHT22;15334;49.494;8.410;2022-11-18T06:39:43;8.80;99.90
28010;DHT22;15334;49.494;8.410;2022-11-18T06:42:22;8.80;99.90
28010;DHT22;15334;49.494;8.410;2022-11-18T06:45:08;8.80;99.90
28010;DHT22;15334;49.494;8.410;2022-11-18T06:47:36;8.80;99.90
28010;DHT22;15334;49.494;8.410;2022-11-18T06:50:04;8.80;99.90
28010;DHT22;15334;49.494;8.410;2022-11-18T06:52:36;8.80;99.90
28010;DHT22;15334;49.494;8.410;2022-11-18T06:55:04;8.90;99.90
28010;DHT22;15334;49.494;8.410;2022-11-18T06:57:35;8.90;99.90
28010;DHT22;15334;49.494;8.410;2022-11-18T07:00:04;8.90;99.90
28010;DHT22;15334;49.494;8.410;2022-11-18T07:02:35;8.90;99.90
28010;DHT22;15334;49.494;8.410;2022-11-18T07:05:03;8.90;99.90
28010;DHT22;15334;49.494;8.410;2022-11-18T07:07:33;8.90;99.90
28010;DHT22;15334;49.494;8.410;2022-11-18T07:10:08;8.90;99.90
28010;DHT22;15334;49.494;8.410;2022-11-18T07:12:37;8.90;99.90
28010;DHT22;15334;49.494;8.410;2022-11-18T07:15:08;9.00;99.90
28010;DHT22;15334;49.494;8.410;2022-11-18T07:17:36;9.00;99.90
28010;DHT22;15334;49.494;8.410;2022-11-18T07:20:05;9.00;99.90
28010;DHT22;15334;49.494;8.410;2022-11-18T07:22:33;9.00;99.90
28010;DHT22;15334;49.494;8.410;2022-11-18T07:25:02;9.00;99.90
28010;DHT22;15334;49.494;8.410;2022-11-18T07:27:32;9.00;99.90
28010;DHT22;15334;49.494;8.410;2022-11-18T07:30:02;9.00;99.90
28010;DHT22;15334;49.494;8.410;2022-11-18T07:32:31;9.00;99.90
28010;DHT22;15334;49.494;8.410;2022-11-18T07:34:59;9.00;99.90
28010;DHT22;15334;49.494;8.410;2022-11-18T07:37:27;9.00;99.90
28010;DHT22;15334;49.494;8.410;2022-11-18T07:39:55;9.00;99.90
28010;DHT22;15334;49.494;8.410;2022-11-18T07:42:25;9.00;99.90
28010;DHT22;15334;49.494;8.410;2022-11-18T07:44:53;9.00;99.90
28010;DHT22;15334;49.494;8.410;2022-11-18T07:47:23;9.00;99.90
28010;DHT22;15334;49.494;8.410;2022-11-18T07:49:51;9.00;99.90
28010;DHT22;15334;49.494;8.410;2022-11-18T07:52:19;9.00;99.90
28010;DHT22;15334;49.494;8.410;2022-11-18T07:54:47;9.00;99.90
28010;DHT22;15334;49.494;8.410;2022-11-18T07:57:15;9.00;99.90
28010;DHT22;15334;49.494;8.410;2022-11-18T07:59:43;9.00;99.90
28010;DHT22;15334;49.494;8.410;2022-11-18T08:02:11;9.00;99.90
28010;DHT22;15334;49.494;8.410;2022-11-18T08:04:41;9.10;99.90
28010;DHT22;15334;49.494;8.410;2022-11-18T08:07:09;9.10;99.90
28010;DHT22;15334;49.494;8.410;2022-11-18T08:09:37;9.20;99.90
28010;DHT22;15334;49.494;8.410;2022-11-18T08:12:06;9.20;99.90
28010;DHT22;15334;49.494;8.410;2022-11-18T08:14:34;9.20;99.90
28010;DHT22;15334;49.494;8.410;2022-11-18T08:17:13;9.20;99.90
28010;DHT22;15334;49.494;8.410;2022-11-18T08:19:42;9.20;99.90
28010;DHT22;15334;49.494;8.410;2022-11-18T08:22:10;9.20;99.90
28010;DHT22;15334;49.494;8.410;2022-11-18T08:24:38;9.30;99.90
28010;DHT22;15334;49.494;8.410;2022-11-18T08:27:06;9.30;99.90
28010;DHT22;15334;49.494;8.410;2022-11-18T08:29:35;9.30;99.90
28010;DHT22;15334;49.494;8.410;2022-11-18T08:32:03;9.40;99.90
28010;DHT22;15334;49.494;8.410;2022-11-18T08:34:32;9.40;99.90
28010;DHT22;15334;49.494;8.410;2022-11-18T08:37:01;9.40;99.90
28010;DHT22;15334;49.494;8.410;2022-11-18T08:39:29;9.50;99.90
28010;DHT22;15334;49.494;8.410;2022-11-18T08:41:58;9.60;99.90
28010;DHT22;15334;49.494;8.410;2022-11-18T08:44:26;9.60;99.90
28010;DHT22;15334;49.494;8.410;2022-11-18T08:46:54;9.60;99.90
28010;DHT22;15334;49.494;8.410;2022-11-18T08:49:22;9.60;99.90
28010;DHT22;15334;49.494;8.410;2022-11-18T08:51:58;9.60;99.90
28010;DHT22;15334;49.494;8.410;2022-11-18T08:54:29;9.60;99.90
28010;DHT22;15334;49.494;8.410;2022-11-18T08:56:57;9.60;99.90
28010;DHT22;15334;49.494;8.410;2022-11-18T09:04:13;9.60;99.90
28010;DHT22;15334;49.494;8.410;2022-11-18T09:07:35;9.60;99.90
28010;DHT22;15334;49.494;8.410;2022-11-18T09:13:50;9.70;99.90
28010;DHT22;15334;49.494;8.410;2022-11-18T09:17:21;9.80;99.90
28010;DHT22;15334;49.494;8.410;2022-11-18T09:20:35;9.90;99.90
28010;DHT22;15334;49.494;8.410;2022-11-18T09:23:51;10.00;99.90
28010;DHT22;15334;49.494;8.410;2022-11-18T09:27:17;10.10;99.90
28010;DHT22;15334;49.494;8.410;2022-11-18T09:29:47;10.20;99.90
28010;DHT22;15334;49.494;8.410;2022-11-18T09:32:15;10.30;99.90
28010;DHT22;15334;49.494;8.410;2022-11-18T09:34:43;10.30;99.90
28010;DHT22;15334;49.494;8.410;2022-11-18T09:37:11;10.40;99.90
28010;DHT22;15334;49.494;8.410;2022-11-18T09:39:42;10.40;99.90
28010;DHT22;15334;49.494;8.410;2022-11-18T09:42:28;10.50;99.90
28010;DHT22;15334;49.494;8.410;2022-11-18T09:45:08;10.70;99.90
28010;DHT22;15334;49.494;8.410;2022-11-18T09:47:41;10.80;99.90
28010;DHT22;15334;49.494;8.410;2022-11-18T09:50:12;10.90;99.90
28010;DHT22;15334;49.494;8.410;2022-11-18T09:53:05;11.10;99.90
28010;DHT22;15334;49.494;8.410;2022-11-18T09:55:37;11.20;99.90
28010;DHT22;15334;49.494;8.410;2022-11-18T09:58:14;11.20;99.90
28010;DHT22;15334;49.494;8.410;2022-11-18T10:00:43;11.30;99.90
28010;DHT22;15334;49.494;8.410;2022-11-18T10:03:16;11.30;99.90
28010;DHT22;15334;49.494;8.410;2022-11-18T10:05:51;11.30;99.90
28010;DHT22;15334;49.494;8.410;2022-11-18T10:08:24;11.30;99.90
28010;DHT22;15334;49.494;8.410;2022-11-18T10:10:59;11.40;99.90
28010;DHT22;15334;49.494;8.410;2022-11-18T10:13:40;11.40;99.90
28010;DHT22;15334;49.494;8.410;2022-11-18T10:16:23;11.40;99.90
28010;DHT22;15334;49.494;8.410;2022-11-18T10:19:03;11.50;99.90
28010;DHT22;15334;49.494;8.410;2022-11-18T10:21:43;11.70;99.90
28010;DHT22;15334;49.494;8.410;2022-11-18T10:24:17;11.80;99.90
28010;DHT22;15334;49.494;8.410;2022-11-18T10:26:54;11.90;99.90
28010;DHT22;15334;49.494;8.410;2022-11-18T10:29:24;11.90;99.90
28010;DHT22;15334;49.494;8.410;2022-11-18T10:31:58;11.90;99.90
28010;DHT22;15334;49.494;8.410;2022-11-18T10:34:30;11.80;99.90
28010;DHT22;15334;49.494;8.410;2022-11-18T10:37:00;11.80;99.90
28010;DHT22;15334;49.494;8.410;2022-11-18T10:39:29;11.70;99.90
28010;DHT22;15334;49.494;8.410;2022-11-18T10:42:00;11.60;99.90
28010;DHT22;15334;49.494;8.410;2022-11-18T10:44:34;11.60;99.90
28010;DHT22;15334;49.494;8.410;2022-11-18T10:47:32;11.70;99.90
28010;DHT22;15334;49.494;8.410;2022-11-18T10:50:01;11.70;99.90
28010;DHT22;15334;49.494;8.410;2022-11-18T10:52:29;11.70;99.90
28010;DHT22;15334;49.494;8.410;2022-11-18T10:55:19;11.80;99.90
28010;DHT22;15334;49.494;8.410;2022-11-18T10:57:51;11.80;99.90
28010;DHT22;15334;49.494;8.410;2022-11-18T11:00:42;11.80;99.90
28010;DHT22;15334;49.494;8.410;2022-11-18T11:03:35;11.70;99.90
28010;DHT22;15334;49.494;8.410;2022-11-18T11:09:25;11.70;99.90
28010;DHT22;15334;49.494;8.410;2022-11-18T11:11:57;11.70;99.90
28010;DHT22;15334;49.494;8.410;2022-11-18T11:14:31;11.60;99.90
28010;DHT22;15334;49.494;8.410;2022-11-18T11:17:07;11.60;99.90
28010;DHT22;15334;49.494;8.410;2022-11-18T11:19:42;11.70;99.90
28010;DHT22;15334;49.494;8.410;2022-11-18T11:22:11;11.70;99.90
28010;DHT22;15334;49.494;8.410;2022-11-18T11:24:40;11.70;99.90
28010;DHT22;15334;49.494;8.410;2022-11-18T11:27:18;11.70;99.90
28010;DHT22;15334;49.494;8.410;2022-11-18T11:30:18;11.80;99.90
28010;DHT22;15334;49.494;8.410;2022-11-18T11:33:18;11.90;99.90
28010;DHT22;15334;49.494;8.410;2022-11-18T11:41:40;12.00;99.90
28010;DHT22;15334;49.494;8.410;2022-11-18T11:44:23;12.10;99.90
28010;DHT22;15334;49.494;8.410;2022-11-18T11:46:56;12.10;99.90
28010;DHT22;15334;49.494;8.410;2022-11-18T11:49:52;12.10;99.90
28010;DHT22;15334;49.494;8.410;2022-11-18T11:52:32;12.10;99.90
28010;DHT22;15334;49.494;8.410;2022-11-18T11:55:14;12.00;99.90
28010;DHT22;15334;49.494;8.410;2022-11-18T11:58:03;12.00;99.90
28010;DHT22;15334;49.494;8.410;2022-11-18T12:00:36;12.00;99.90
28010;DHT22;15334;49.494;8.410;2022-11-18T12:03:19;12.10;99.90
28010;DHT22;15334;49.494;8.410;2022-11-18T12:05:53;12.10;99.90
28010;DHT22;15334;49.494;8.410;2022-11-18T12:08:23;12.10;99.90
28010;DHT22;15334;49.494;8.410;2022-11-18T12:10:55;12.00;99.90
28010;DHT22;15334;49.494;8.410;2022-11-18T12:13:25;12.10;99.90
28010;DHT22;15334;49.494;8.410;2022-11-18T12:16:15;12.10;99.90
28010;DHT22;15334;49.494;8.410;2022-11-18T12:18:48;12.30;99.90
28010;DHT22;15334;49.494;8.410;2022-11-18T12:24:37;11.90;99.90
28010;DHT22;15334;49.494;8.410;2022-11-18T12:27:11;11.90;99.90
28010;DHT22;15334;49.494;8.410;2022-11-18T12:29:53;12.00;99.90
28010;DHT22;15334;49.494;8.410;2022-11-18T12:32:28;12.00;99.90
28010;DHT22;15334;49.494;8.410;2022-11-18T12:35:00;12.00;99.90
28010;DHT22;15334;49.494;8.410;2022-11-18T12:40:42;12.00;99.90
28010;DHT22;15334;49.494;8.410;2022-11-18T12:46:55;11.60;99.90
28010;DHT22;15334;49.494;8.410;2022-11-18T12:52:47;11.50;99.90
28010;DHT22;15334;49.494;8.410;2022-11-18T12:55:23;11.70;99.90
28010;DHT22;15334;49.494;8.410;2022-11-18T12:57:53;12.00;99.90
28010;DHT22;15334;49.494;8.410;2022-11-18T13:00:30;12.10;99.90
28010;DHT22;15334;49.494;8.410;2022-11-18T13:03:00;12.10;99.90
28010;DHT22;15334;49.494;8.410;2022-11-18T13:05:29;12.10;99.90
28010;DHT22;15334;49.494;8.410;2022-11-18T13:08:02;12.10;99.90
28010;DHT22;15334;49.494;8.410;2022-11-18T13:10:47;12.10;99.90
28010;DHT22;15334;49.494;8.410;2022-11-18T13:13:27;12.00;99.90
28010;DHT22;15334;49.494;8.410;2022-11-18T13:16:01;12.00;99.90
28010;DHT22;15334;49.494;8.410;2022-11-18T13:18:50;12.00;99.90
28010;DHT22;15334;49.494;8.410;2022-11-18T13:21:23;12.00;99.90
28010;DHT22;15334;49.494;8.410;2022-11-18T13:24:11;12.10;99.90
28010;DHT22;15334;49.494;8.410;2022-11-18T13:26:41;12.00;99.90
28010;DHT22;15334;49.494;8.410;2022-11-18T13:29:23;12.00;99.90
28010;DHT22;15334;49.494;8.410;2022-11-18T13:32:13;11.90;99.90
28010;DHT22;15334;49.494;8.410;2022-11-18T13:34:47;11.70;99.90
28010;DHT22;15334;49.494;8.410;2022-11-18T13:37:18;11.50;99.90
28010;DHT22;15334;49.494;8.410;2022-11-18T13:39:47;11.40;99.90
28010;DHT22;15334;49.494;8.410;2022-11-18T13:42:18;11.50;99.90
28010;DHT22;15334;49.494;8.410;2022-11-18T13:44:55;11.50;99.90
28010;DHT22;15334;49.494;8.410;2022-11-18T13:47:27;11.50;99.90
28010;DHT22;15334;49.494;8.410;2022-11-18T13:50:05;11.50;99.90
28010;DHT22;15334;49.494;8.410;2022-11-18T13:52:40;11.50;99.90
28010;DHT22;15334;49.494;8.410;2022-11-18T13:55:14;11.50;99.90
28010;DHT22;15334;49.494;8.410;2022-11-18T13:57:47;11.50;99.90
28010;DHT22;15334;49.494;8.410;2022-11-18T14:00:23;11.50;99.90
28010;DHT22;15334;49.494;8.410;2022-11-18T14:02:55;11.60;99.90
28010;DHT22;15334;49.494;8.410;2022-11-18T14:05:24;11.60;99.90
28010;DHT22;15334;49.494;8.410;2022-11-18T14:08:02;11.70;99.90
28010;DHT22;15334;49.494;8.410;2022-11-18T14:10:34;11.50;99.90
28010;DHT22;15334;49.494;8.410;2022-11-18T14:13:16;11.50;99.90
28010;DHT22;15334;49.494;8.410;2022-11-18T14:15:46;11.50;99.90
28010;DHT22;15334;49.494;8.410;2022-11-18T14:18:19;11.40;99.90
28010;DHT22;15334;49.494;8.410;2022-11-18T14:20:52;11.40;99.90
28010;DHT22;15334;49.494;8.410;2022-11-18T14:23:26;11.30;99.90
28010;DHT22;15334;49.494;8.410;2022-11-18T14:25:59;11.30;99.90
28010;DHT22;15334;49.494;8.410;2022-11-18T14:28:29;11.30;99.90
28010;DHT22;15334;49.494;8.410;2022-11-18T14:31:06;11.30;99.90
28010;DHT22;15334;49.494;8.410;2022-11-18T14:34:10;11.30;99.90
28010;DHT22;15334;49.494;8.410;2022-11-18T14:36:42;11.20;99.90
28010;DHT22;15334;49.494;8.410;2022-11-18T14:39:21;11.10;99.90
28010;DHT22;15334;49.494;8.410;2022-11-18T14:41:53;11.00;99.90
28010;DHT22;15334;49.494;8.410;2022-11-18T14:44:26;11.00;99.90
28010;DHT22;15334;49.494;8.410;2022-11-18T14:46:57;10.90;99.90
28010;DHT22;15334;49.494;8.410;2022-11-18T14:49:26;10.90;99.90
28010;DHT22;15334;49.494;8.410;2022-11-18T14:51:57;10.90;99.90
28010;DHT22;15334;49.494;8.410;2022-11-18T14:54:28;10.90;99.90
28010;DHT22;15334;49.494;8.410;2022-11-18T14:56:59;10.80;99.90
28010;DHT22;15334;49.494;8.410;2022-11-18T14:59:27;10.80;99.90
28010;DHT22;15334;49.494;8.410;2022-11-18T15:01:57;10.70;99.90
28010;DHT22;15334;49.494;8.410;2022-11-18T15:04:25;10.60;99.90
28010;DHT22;15334;49.494;8.410;2022-11-18T15:06:53;10.60;99.90
28010;DHT22;15334;49.494;8.410;2022-11-18T15:09:22;10.60;99.90
28010;DHT22;15334;49.494;8.410;2022-11-18T15:11:50;10.60;99.90
28010;DHT22;15334;49.494;8.410;2022-11-18T15:14:18;10.60;99.90
28010;DHT22;15334;49.494;8.410;2022-11-18T15:16:47;10.60;99.90
28010;DHT22;15334;49.494;8.410;2022-11-18T15:19:16;10.60;99.90
28010;DHT22;15334;49.494;8.410;2022-11-18T15:21:44;10.50;99.90
28010;DHT22;15334;49.494;8.410;2022-11-18T15:24:12;10.50;99.90
28010;DHT22;15334;49.494;8.410;2022-11-18T15:26:43;10.40;99.90
28010;DHT22;15334;49.494;8.410;2022-11-18T15:29:15;10.40;99.90
28010;DHT22;15334;49.494;8.410;2022-11-18T15:31:44;10.50;99.90
28010;DHT22;15334;49.494;8.410;2022-11-18T15:34:12;10.50;99.90
28010;DHT22;15334;49.494;8.410;2022-11-18T15:36:41;10.50;99.90
28010;DHT22;15334;49.494;8.410;2022-11-18T15:39:10;10.60;99.90
28010;DHT22;15334;49.494;8.410;2022-11-18T15:41:39;10.60;99.90
28010;DHT22;15334;49.494;8.410;2022-11-18T15:44:09;10.70;99.90
28010;DHT22;15334;49.494;8.410;2022-11-18T15:46:37;10.70;99.90
28010;DHT22;15334;49.494;8.410;2022-11-18T15:49:06;10.70;99.90
28010;DHT22;15334;49.494;8.410;2022-11-18T15:51:35;10.70;99.90
28010;DHT22;15334;49.494;8.410;2022-11-18T15:54:05;10.70;99.90
28010;DHT22;15334;49.494;8.410;2022-11-18T15:56:33;10.70;99.90
28010;DHT22;15334;49.494;8.410;2022-11-18T15:59:05;10.80;99.90
28010;DHT22;15334;49.494;8.410;2022-11-18T16:01:37;10.70;99.90
28010;DHT22;15334;49.494;8.410;2022-11-18T16:04:13;10.80;99.90
28010;DHT22;15334;49.494;8.410;2022-11-18T16:06:51;10.80;99.90
28010;DHT22;15334;49.494;8.410;2022-11-18T16:09:20;10.80;99.90
28010;DHT22;15334;49.494;8.410;2022-11-18T16:11:48;10.80;99.90
28010;DHT22;15334;49.494;8.410;2022-11-18T16:14:35;10.80;99.90
28010;DHT22;15334;49.494;8.410;2022-11-18T16:17:05;10.70;99.90
28010;DHT22;15334;49.494;8.410;2022-11-18T16:19:33;10.70;99.90
28010;DHT22;15334;49.494;8.410;2022-11-18T16:22:01;10.70;99.90
28010;DHT22;15334;49.494;8.410;2022-11-18T16:24:31;10.70;99.90
28010;DHT22;15334;49.494;8.410;2022-11-18T16:26:59;10.60;99.90
28010;DHT22;15334;49.494;8.410;2022-11-18T16:29:30;10.50;99.90
28010;DHT22;15334;49.494;8.410;2022-11-18T16:31:58;10.50;99.90
28010;DHT22;15334;49.494;8.410;2022-11-18T16:34:26;10.50;99.90
28010;DHT22;15334;49.494;8.410;2022-11-18T16:36:57;10.40;99.90
28010;DHT22;15334;49.494;8.410;2022-11-18T16:39:27;10.40;99.90
28010;DHT22;15334;49.494;8.410;2022-11-18T16:41:58;10.30;99.90
28010;DHT22;15334;49.494;8.410;2022-11-18T16:44:34;10.30;99.90
28010;DHT22;15334;49.494;8.410;2022-11-18T16:47:02;10.30;99.90
28010;DHT22;15334;49.494;8.410;2022-11-18T16:49:39;10.20;99.90
28010;DHT22;15334;49.494;8.410;2022-11-18T16:52:08;10.30;99.90
28010;DHT22;15334;49.494;8.410;2022-11-18T16:54:36;10.20;99.90